sensor_id;sensor_type;location;lat;lon;timestamp;P1;durP1;ratioP1;P2;durP2;ratioP2
65769;SDS011;52512;47.650;8.578;2023-05-19T00:01:08;8.15;;;2.17;;
65769;SDS011;52512;47.650;8.578;2023-05-19T00:03:37;6.55;;;2.10;;
65769;SDS011;52512;47.650;8.578;2023-05-19T00:06:12;7.57;;;2.63;;
65769;SDS011;52512;47.650;8.578;2023-05-19T00:08:38;2.45;;;2.25;;
65769;SDS011;52512;47.650;8.578;2023-05-19T00:11:05;3.90;;;3.60;;
65769;SDS011;52512;47.650;8.578;2023-05-19T00:13:31;3.60;;;1.90;;
65769;SDS011;52512;47.650;8.578;2023-05-19T00:15:57;4.30;;;2.03;;
65769;SDS011;52512;47.650;8.578;2023-05-19T00:18:23;6.60;;;2.50;;
65769;SDS011;52512;47.650;8.578;2023-05-19T00:20:48;3.60;;;2.90;;
65769;SDS011;52512;47.650;8.578;2023-05-19T00:23:16;3.33;;;2.38;;
65769;SDS011;52512;47.650;8.578;2023-05-19T00:25:41;4.83;;;1.93;;
65769;SDS011;52512;47.650;8.578;2023-05-19T00:28:07;11.83;;;3.20;;
65769;SDS011;52512;47.650;8.578;2023-05-19T00:30:33;6.40;;;2.43;;
65769;SDS011;52512;47.650;8.578;2023-05-19T00:32:58;2.70;;;2.07;;
65769;SDS011;52512;47.650;8.578;2023-05-19T00:35:24;9.33;;;2.47;;
65769;SDS011;52512;47.650;8.578;2023-05-19T00:37:50;3.90;;;2.40;;
65769;SDS011;52512;47.650;8.578;2023-05-19T00:40:15;2.10;;;1.70;;
65769;SDS011;52512;47.650;8.578;2023-05-19T00:42:41;7.73;;;2.67;;
65769;SDS011;52512;47.650;8.578;2023-05-19T00:45:07;3.23;;;2.50;;
65769;SDS011;52512;47.650;8.578;2023-05-19T00:47:33;3.50;;;2.30;;
65769;SDS011;52512;47.650;8.578;2023-05-19T00:49:58;3.50;;;1.90;;
65769;SDS011;52512;47.650;8.578;2023-05-19T00:52:25;3.47;;;1.85;;
65769;SDS011;52512;47.650;8.578;2023-05-19T00:54:51;4.25;;;2.10;;
65769;SDS011;52512;47.650;8.578;2023-05-19T00:57:18;9.88;;;2.28;;
65769;SDS011;52512;47.650;8.578;2023-05-19T00:59:45;5.85;;;1.90;;
65769;SDS011;52512;47.650;8.578;2023-05-19T01:02:12;5.10;;;2.17;;
65769;SDS011;52512;47.650;8.578;2023-05-19T01:04:39;4.75;;;2.40;;
65769;SDS011;52512;47.650;8.578;2023-05-19T01:07:05;1.63;;;1.52;;
65769;SDS011;52512;47.650;8.578;2023-05-19T01:09:31;7.85;;;2.30;;
65769;SDS011;52512;47.650;8.578;2023-05-19T01:11:58;3.33;;;1.85;;
65769;SDS011;52512;47.650;8.578;2023-05-19T01:14:25;5.25;;;2.38;;
65769;SDS011;52512;47.650;8.578;2023-05-19T01:16:57;4.28;;;1.85;;
65769;SDS011;52512;47.650;8.578;2023-05-19T01:22:17;8.65;;;2.00;;
65769;SDS011;52512;47.650;8.578;2023-05-19T01:32:47;6.78;;;2.00;;
65769;SDS011;52512;47.650;8.578;2023-05-19T01:35:17;6.82;;;1.60;;
65769;SDS011;52512;47.650;8.578;2023-05-19T01:37:43;3.58;;;1.92;;
65769;SDS011;52512;47.650;8.578;2023-05-19T01:40:10;5.53;;;2.45;;
65769;SDS011;52512;47.650;8.578;2023-05-19T01:42:36;3.53;;;2.13;;
65769;SDS011;52512;47.650;8.578;2023-05-19T01:45:04;6.97;;;2.03;;
65769;SDS011;52512;47.650;8.578;2023-05-19T01:47:34;2.22;;;2.05;;
65769;SDS011;52512;47.650;8.578;2023-05-19T01:50:04;3.95;;;2.20;;
65769;SDS011;52512;47.650;8.578;2023-05-19T01:52:30;3.35;;;1.50;;
65769;SDS011;52512;47.650;8.578;2023-05-19T01:54:57;2.15;;;1.80;;
65769;SDS011;52512;47.650;8.578;2023-05-19T02:00:10;6.43;;;1.92;;
65769;SDS011;52512;47.650;8.578;2023-05-19T02:06:17;4.15;;;2.42;;
65769;SDS011;52512;47.650;8.578;2023-05-19T02:11:40;6.30;;;1.92;;
65769;SDS011;52512;47.650;8.578;2023-05-19T02:14:23;3.63;;;2.13;;
65769;SDS011;52512;47.650;8.578;2023-05-19T02:17:02;1.70;;;1.63;;
65769;SDS011;52512;47.650;8.578;2023-05-19T02:19:32;5.43;;;1.85;;
65769;SDS011;52512;47.650;8.578;2023-05-19T02:22:00;3.90;;;2.50;;
65769;SDS011;52512;47.650;8.578;2023-05-19T02:24:26;17.83;;;2.50;;
65769;SDS011;52512;47.650;8.578;2023-05-19T02:26:52;1.57;;;1.47;;
65769;SDS011;52512;47.650;8.578;2023-05-19T02:29:18;8.63;;;2.88;;
65769;SDS011;52512;47.650;8.578;2023-05-19T02:31:45;5.18;;;2.58;;
65769;SDS011;52512;47.650;8.578;2023-05-19T02:34:11;2.78;;;2.30;;
65769;SDS011;52512;47.650;8.578;2023-05-19T02:36:37;3.67;;;1.87;;
65769;SDS011;52512;47.650;8.578;2023-05-19T02:39:08;5.00;;;2.47;;
65769;SDS011;52512;47.650;8.578;2023-05-19T02:41:35;3.95;;;2.35;;
65769;SDS011;52512;47.650;8.578;2023-05-19T02:44:01;7.57;;;2.22;;
65769;SDS011;52512;47.650;8.578;2023-05-19T02:46:26;5.80;;;2.63;;
65769;SDS011;52512;47.650;8.578;2023-05-19T02:48:52;4.10;;;2.40;;
65769;SDS011;52512;47.650;8.578;2023-05-19T02:51:17;3.83;;;2.20;;
65769;SDS011;52512;47.650;8.578;2023-05-19T02:53:43;3.10;;;2.37;;
65769;SDS011;52512;47.650;8.578;2023-05-19T02:56:09;2.93;;;2.00;;
65769;SDS011;52512;47.650;8.578;2023-05-19T02:58:35;2.10;;;1.90;;
65769;SDS011;52512;47.650;8.578;2023-05-19T03:01:00;6.07;;;2.33;;
65769;SDS011;52512;47.650;8.578;2023-05-19T03:03:26;6.10;;;2.60;;
65769;SDS011;52512;47.650;8.578;2023-05-19T03:05:52;2.58;;;1.83;;
65769;SDS011;52512;47.650;8.578;2023-05-19T03:08:18;4.27;;;2.17;;
65769;SDS011;52512;47.650;8.578;2023-05-19T03:10:44;7.47;;;2.70;;
65769;SDS011;52512;47.650;8.578;2023-05-19T03:13:10;4.50;;;3.00;;
65769;SDS011;52512;47.650;8.578;2023-05-19T03:15:37;4.43;;;2.50;;
65769;SDS011;52512;47.650;8.578;2023-05-19T03:18:02;4.77;;;2.53;;
65769;SDS011;52512;47.650;8.578;2023-05-19T03:20:28;2.20;;;2.00;;
65769;SDS011;52512;47.650;8.578;2023-05-19T03:22:54;2.67;;;2.23;;
65769;SDS011;52512;47.650;8.578;2023-05-19T03:25:20;7.53;;;2.65;;
65769;SDS011;52512;47.650;8.578;2023-05-19T03:27:46;4.15;;;2.35;;
65769;SDS011;52512;47.650;8.578;2023-05-19T03:30:12;4.57;;;2.20;;
65769;SDS011;52512;47.650;8.578;2023-05-19T03:32:38;2.63;;;2.40;;
65769;SDS011;52512;47.650;8.578;2023-05-19T03:35:04;6.50;;;2.27;;
65769;SDS011;52512;47.650;8.578;2023-05-19T03:37:30;2.60;;;2.40;;
65769;SDS011;52512;47.650;8.578;2023-05-19T03:39:58;2.60;;;2.35;;
65769;SDS011;52512;47.650;8.578;2023-05-19T03:42:24;3.30;;;2.53;;
65769;SDS011;52512;47.650;8.578;2023-05-19T03:44:50;4.70;;;2.60;;
65769;SDS011;52512;47.650;8.578;2023-05-19T03:47:16;6.03;;;2.87;;
65769;SDS011;52512;47.650;8.578;2023-05-19T03:49:41;4.63;;;2.30;;
65769;SDS011;52512;47.650;8.578;2023-05-19T03:52:07;7.27;;;3.40;;
65769;SDS011;52512;47.650;8.578;2023-05-19T03:54:33;3.45;;;2.42;;
65769;SDS011;52512;47.650;8.578;2023-05-19T03:56:59;2.65;;;2.38;;
65769;SDS011;52512;47.650;8.578;2023-05-19T03:59:26;5.38;;;2.22;;
65769;SDS011;52512;47.650;8.578;2023-05-19T04:01:52;6.03;;;2.75;;
65769;SDS011;52512;47.650;8.578;2023-05-19T04:04:17;5.93;;;2.80;;
65769;SDS011;52512;47.650;8.578;2023-05-19T04:06:43;5.83;;;2.80;;
65769;SDS011;52512;47.650;8.578;2023-05-19T04:09:12;5.70;;;3.05;;
65769;SDS011;52512;47.650;8.578;2023-05-19T04:11:40;3.20;;;2.58;;
65769;SDS011;52512;47.650;8.578;2023-05-19T04:14:06;7.90;;;3.67;;
65769;SDS011;52512;47.650;8.578;2023-05-19T04:16:33;2.72;;;2.45;;
65769;SDS011;52512;47.650;8.578;2023-05-19T04:18:58;3.20;;;2.70;;
65769;SDS011;52512;47.650;8.578;2023-05-19T04:21:24;5.03;;;3.55;;
65769;SDS011;52512;47.650;8.578;2023-05-19T04:23:51;5.05;;;2.80;;
65769;SDS011;52512;47.650;8.578;2023-05-19T04:26:17;3.27;;;2.97;;
65769;SDS011;52512;47.650;8.578;2023-05-19T04:28:45;4.88;;;2.55;;
65769;SDS011;52512;47.650;8.578;2023-05-19T04:31:12;3.78;;;2.45;;
65769;SDS011;52512;47.650;8.578;2023-05-19T04:33:38;5.95;;;3.22;;
65769;SDS011;52512;47.650;8.578;2023-05-19T04:36:05;4.47;;;3.15;;
65769;SDS011;52512;47.650;8.578;2023-05-19T04:38:35;6.78;;;3.67;;
65769;SDS011;52512;47.650;8.578;2023-05-19T04:41:02;2.85;;;2.47;;
65769;SDS011;52512;47.650;8.578;2023-05-19T04:43:28;8.63;;;3.50;;
65769;SDS011;52512;47.650;8.578;2023-05-19T04:45:53;5.57;;;2.97;;
65769;SDS011;52512;47.650;8.578;2023-05-19T04:48:19;8.20;;;2.13;;
65769;SDS011;52512;47.650;8.578;2023-05-19T04:50:45;5.30;;;2.72;;
65769;SDS011;52512;47.650;8.578;2023-05-19T04:53:13;7.75;;;3.35;;
65769;SDS011;52512;47.650;8.578;2023-05-19T04:55:39;6.45;;;2.78;;
65769;SDS011;52512;47.650;8.578;2023-05-19T04:58:05;7.73;;;3.70;;
65769;SDS011;52512;47.650;8.578;2023-05-19T05:00:31;7.20;;;4.13;;
65769;SDS011;52512;47.650;8.578;2023-05-19T05:02:59;7.20;;;3.50;;
65769;SDS011;52512;47.650;8.578;2023-05-19T05:05:29;4.47;;;3.20;;
65769;SDS011;52512;47.650;8.578;2023-05-19T05:07:55;4.70;;;2.72;;
65769;SDS011;52512;47.650;8.578;2023-05-19T05:10:23;5.22;;;3.05;;
65769;SDS011;52512;47.650;8.578;2023-05-19T05:12:49;5.22;;;2.63;;
65769;SDS011;52512;47.650;8.578;2023-05-19T05:15:15;5.03;;;3.30;;
65769;SDS011;52512;47.650;8.578;2023-05-19T05:17:42;9.98;;;3.70;;
65769;SDS011;52512;47.650;8.578;2023-05-19T05:20:08;4.75;;;3.75;;
65769;SDS011;52512;47.650;8.578;2023-05-19T05:22:35;12.27;;;4.05;;
65769;SDS011;52512;47.650;8.578;2023-05-19T05:25:02;4.22;;;3.10;;
65769;SDS011;52512;47.650;8.578;2023-05-19T05:27:28;14.50;;;5.32;;
65769;SDS011;52512;47.650;8.578;2023-05-19T05:29:55;5.30;;;3.50;;
65769;SDS011;52512;47.650;8.578;2023-05-19T05:32:20;7.97;;;3.83;;
65769;SDS011;52512;47.650;8.578;2023-05-19T05:34:46;14.30;;;4.32;;
65769;SDS011;52512;47.650;8.578;2023-05-19T05:37:13;9.40;;;3.40;;
65769;SDS011;52512;47.650;8.578;2023-05-19T05:39:39;6.25;;;3.58;;
65769;SDS011;52512;47.650;8.578;2023-05-19T05:42:05;5.80;;;3.20;;
65769;SDS011;52512;47.650;8.578;2023-05-19T05:44:33;11.27;;;3.97;;
65769;SDS011;52512;47.650;8.578;2023-05-19T05:47:00;6.45;;;3.90;;
65769;SDS011;52512;47.650;8.578;2023-05-19T05:49:26;7.57;;;3.75;;
65769;SDS011;52512;47.650;8.578;2023-05-19T05:51:52;3.40;;;2.67;;
65769;SDS011;52512;47.650;8.578;2023-05-19T05:54:20;8.10;;;2.60;;
65769;SDS011;52512;47.650;8.578;2023-05-19T05:56:47;3.67;;;2.80;;
65769;SDS011;52512;47.650;8.578;2023-05-19T05:59:13;7.13;;;3.67;;
65769;SDS011;52512;47.650;8.578;2023-05-19T06:01:39;9.95;;;4.07;;
65769;SDS011;52512;47.650;8.578;2023-05-19T06:04:06;6.78;;;3.92;;
65769;SDS011;52512;47.650;8.578;2023-05-19T06:06:31;10.80;;;4.10;;
65769;SDS011;52512;47.650;8.578;2023-05-19T06:08:57;7.97;;;3.50;;
65769;SDS011;52512;47.650;8.578;2023-05-19T06:11:23;6.13;;;3.43;;
65769;SDS011;52512;47.650;8.578;2023-05-19T06:13:49;6.50;;;3.40;;
65769;SDS011;52512;47.650;8.578;2023-05-19T06:16:14;6.73;;;4.03;;
65769;SDS011;52512;47.650;8.578;2023-05-19T06:18:40;10.40;;;2.97;;
65769;SDS011;52512;47.650;8.578;2023-05-19T06:21:06;6.60;;;3.27;;
65769;SDS011;52512;47.650;8.578;2023-05-19T06:23:34;5.30;;;3.38;;
65769;SDS011;52512;47.650;8.578;2023-05-19T06:26:00;6.50;;;3.97;;
65769;SDS011;52512;47.650;8.578;2023-05-19T06:28:25;8.30;;;3.80;;
65769;SDS011;52512;47.650;8.578;2023-05-19T06:30:51;11.53;;;2.93;;
65769;SDS011;52512;47.650;8.578;2023-05-19T06:33:17;11.60;;;3.83;;
65769;SDS011;52512;47.650;8.578;2023-05-19T06:35:42;16.83;;;4.03;;
65769;SDS011;52512;47.650;8.578;2023-05-19T06:38:08;10.87;;;3.13;;
65769;SDS011;52512;47.650;8.578;2023-05-19T06:40:34;10.63;;;3.80;;
65769;SDS011;52512;47.650;8.578;2023-05-19T06:43:01;16.48;;;4.15;;
65769;SDS011;52512;47.650;8.578;2023-05-19T06:45:27;9.18;;;4.10;;
65769;SDS011;52512;47.650;8.578;2023-05-19T06:47:52;8.40;;;3.37;;
65769;SDS011;52512;47.650;8.578;2023-05-19T06:50:18;8.27;;;4.10;;
65769;SDS011;52512;47.650;8.578;2023-05-19T06:52:44;12.43;;;4.33;;
65769;SDS011;52512;47.650;8.578;2023-05-19T06:55:11;8.95;;;3.72;;
65769;SDS011;52512;47.650;8.578;2023-05-19T06:57:36;5.87;;;4.17;;
65769;SDS011;52512;47.650;8.578;2023-05-19T07:00:03;11.73;;;4.47;;
65769;SDS011;52512;47.650;8.578;2023-05-19T07:02:30;14.85;;;3.88;;
65769;SDS011;52512;47.650;8.578;2023-05-19T07:04:55;7.10;;;3.33;;
65769;SDS011;52512;47.650;8.578;2023-05-19T07:07:21;8.43;;;3.90;;
65769;SDS011;52512;47.650;8.578;2023-05-19T07:09:47;14.77;;;4.17;;
65769;SDS011;52512;47.650;8.578;2023-05-19T07:12:12;10.33;;;4.40;;
65769;SDS011;52512;47.650;8.578;2023-05-19T07:14:38;12.17;;;4.20;;
65769;SDS011;52512;47.650;8.578;2023-05-19T07:17:04;12.50;;;3.90;;
65769;SDS011;52512;47.650;8.578;2023-05-19T07:19:29;8.33;;;3.63;;
65769;SDS011;52512;47.650;8.578;2023-05-19T07:21:55;7.80;;;4.10;;
65769;SDS011;52512;47.650;8.578;2023-05-19T07:24:21;13.77;;;5.17;;
65769;SDS011;52512;47.650;8.578;2023-05-19T07:26:46;9.87;;;4.60;;
65769;SDS011;52512;47.650;8.578;2023-05-19T07:29:12;7.00;;;4.03;;
65769;SDS011;52512;47.650;8.578;2023-05-19T07:31:38;17.03;;;4.97;;
65769;SDS011;52512;47.650;8.578;2023-05-19T07:34:03;17.93;;;4.50;;
65769;SDS011;52512;47.650;8.578;2023-05-19T07:36:29;11.50;;;3.73;;
65769;SDS011;52512;47.650;8.578;2023-05-19T07:38:55;18.20;;;4.60;;
65769;SDS011;52512;47.650;8.578;2023-05-19T07:41:21;9.90;;;3.37;;
65769;SDS011;52512;47.650;8.578;2023-05-19T07:43:47;15.23;;;4.07;;
65769;SDS011;52512;47.650;8.578;2023-05-19T07:46:13;16.75;;;4.40;;
65769;SDS011;52512;47.650;8.578;2023-05-19T07:48:39;7.03;;;4.30;;
65769;SDS011;52512;47.650;8.578;2023-05-19T07:51:05;14.00;;;4.80;;
65769;SDS011;52512;47.650;8.578;2023-05-19T07:53:34;10.52;;;4.63;;
65769;SDS011;52512;47.650;8.578;2023-05-19T07:56:02;9.43;;;4.93;;
65769;SDS011;52512;47.650;8.578;2023-05-19T07:58:28;32.63;;;4.70;;
65769;SDS011;52512;47.650;8.578;2023-05-19T08:00:57;14.93;;;4.20;;
65769;SDS011;52512;47.650;8.578;2023-05-19T08:03:23;15.95;;;4.68;;
65769;SDS011;52512;47.650;8.578;2023-05-19T08:05:49;9.65;;;3.95;;
65769;SDS011;52512;47.650;8.578;2023-05-19T08:08:15;18.20;;;4.37;;
65769;SDS011;52512;47.650;8.578;2023-05-19T08:10:43;8.93;;;4.40;;
65769;SDS011;52512;47.650;8.578;2023-05-19T08:13:09;15.57;;;4.55;;
65769;SDS011;52512;47.650;8.578;2023-05-19T08:15:35;15.00;;;3.57;;
65769;SDS011;52512;47.650;8.578;2023-05-19T08:18:01;12.32;;;4.63;;
65769;SDS011;52512;47.650;8.578;2023-05-19T08:20:27;12.83;;;3.87;;
65769;SDS011;52512;47.650;8.578;2023-05-19T08:22:53;13.10;;;3.40;;
65769;SDS011;52512;47.650;8.578;2023-05-19T08:25:18;4.63;;;3.23;;
65769;SDS011;52512;47.650;8.578;2023-05-19T08:27:44;7.33;;;4.80;;
65769;SDS011;52512;47.650;8.578;2023-05-19T08:30:10;11.70;;;3.67;;
65769;SDS011;52512;47.650;8.578;2023-05-19T08:32:36;10.88;;;5.03;;
65769;SDS011;52512;47.650;8.578;2023-05-19T08:35:02;14.87;;;4.30;;
65769;SDS011;52512;47.650;8.578;2023-05-19T08:37:28;10.77;;;4.28;;
65769;SDS011;52512;47.650;8.578;2023-05-19T08:39:54;9.03;;;4.10;;
65769;SDS011;52512;47.650;8.578;2023-05-19T08:42:19;8.43;;;3.67;;
65769;SDS011;52512;47.650;8.578;2023-05-19T08:44:45;6.93;;;3.80;;
65769;SDS011;52512;47.650;8.578;2023-05-19T08:47:11;9.07;;;3.83;;
65769;SDS011;52512;47.650;8.578;2023-05-19T08:49:44;5.70;;;3.70;;
65769;SDS011;52512;47.650;8.578;2023-05-19T08:55:02;8.65;;;4.05;;
65769;SDS011;52512;47.650;8.578;2023-05-19T08:57:31;7.63;;;3.53;;
65769;SDS011;52512;47.650;8.578;2023-05-19T08:59:58;11.63;;;3.78;;
65769;SDS011;52512;47.650;8.578;2023-05-19T09:02:25;4.70;;;4.03;;
65769;SDS011;52512;47.650;8.578;2023-05-19T09:04:51;12.98;;;3.67;;
65769;SDS011;52512;47.650;8.578;2023-05-19T09:07:18;5.57;;;3.15;;
65769;SDS011;52512;47.650;8.578;2023-05-19T09:09:45;9.13;;;3.67;;
65769;SDS011;52512;47.650;8.578;2023-05-19T09:12:11;8.15;;;3.75;;
65769;SDS011;52512;47.650;8.578;2023-05-19T09:14:37;16.25;;;4.50;;
65769;SDS011;52512;47.650;8.578;2023-05-19T09:17:03;14.97;;;4.00;;
65769;SDS011;52512;47.650;8.578;2023-05-19T09:19:30;13.20;;;4.43;;
65769;SDS011;52512;47.650;8.578;2023-05-19T09:21:59;4.77;;;3.93;;
65769;SDS011;52512;47.650;8.578;2023-05-19T09:24:27;5.95;;;3.55;;
65769;SDS011;52512;47.650;8.578;2023-05-19T09:26:54;12.45;;;4.20;;
65769;SDS011;52512;47.650;8.578;2023-05-19T09:29:21;10.65;;;4.47;;
65769;SDS011;52512;47.650;8.578;2023-05-19T09:31:47;7.90;;;4.03;;
65769;SDS011;52512;47.650;8.578;2023-05-19T09:34:16;7.78;;;4.20;;
65769;SDS011;52512;47.650;8.578;2023-05-19T09:36:43;13.45;;;3.80;;
65769;SDS011;52512;47.650;8.578;2023-05-19T09:39:16;6.22;;;4.40;;
65769;SDS011;52512;47.650;8.578;2023-05-19T09:41:43;15.75;;;4.05;;
65769;SDS011;52512;47.650;8.578;2023-05-19T09:44:13;10.10;;;4.53;;
65769;SDS011;52512;47.650;8.578;2023-05-19T09:46:48;6.78;;;4.00;;
65769;SDS011;52512;47.650;8.578;2023-05-19T09:49:21;10.43;;;3.63;;
65769;SDS011;52512;47.650;8.578;2023-05-19T09:51:55;8.30;;;2.97;;
65769;SDS011;52512;47.650;8.578;2023-05-19T09:54:21;13.02;;;4.80;;
65769;SDS011;52512;47.650;8.578;2023-05-19T09:57:01;12.20;;;3.83;;
65769;SDS011;52512;47.650;8.578;2023-05-19T09:59:28;15.57;;;4.15;;
65769;SDS011;52512;47.650;8.578;2023-05-19T10:01:55;8.43;;;3.83;;
65769;SDS011;52512;47.650;8.578;2023-05-19T10:04:22;5.50;;;3.95;;
65769;SDS011;52512;47.650;8.578;2023-05-19T10:06:49;7.22;;;4.40;;
65769;SDS011;52512;47.650;8.578;2023-05-19T10:09:19;6.00;;;3.45;;
65769;SDS011;52512;47.650;8.578;2023-05-19T10:11:50;7.30;;;3.58;;
65769;SDS011;52512;47.650;8.578;2023-05-19T10:14:18;7.70;;;4.10;;
65769;SDS011;52512;47.650;8.578;2023-05-19T10:16:52;5.83;;;3.43;;
65769;SDS011;52512;47.650;8.578;2023-05-19T10:19:20;10.65;;;3.60;;
65769;SDS011;52512;47.650;8.578;2023-05-19T10:21:47;7.80;;;4.93;;
65769;SDS011;52512;47.650;8.578;2023-05-19T10:24:13;5.90;;;3.87;;
65769;SDS011;52512;47.650;8.578;2023-05-19T10:26:39;9.90;;;3.43;;
65769;SDS011;52512;47.650;8.578;2023-05-19T10:29:08;9.60;;;3.70;;
65769;SDS011;52512;47.650;8.578;2023-05-19T10:31:36;27.97;;;3.23;;
65769;SDS011;52512;47.650;8.578;2023-05-19T10:37:04;5.10;;;3.20;;
65769;SDS011;52512;47.650;8.578;2023-05-19T10:39:41;6.50;;;3.47;;
65769;SDS011;52512;47.650;8.578;2023-05-19T10:42:19;7.93;;;2.90;;
65769;SDS011;52512;47.650;8.578;2023-05-19T10:47:34;12.37;;;3.40;;
65769;SDS011;52512;47.650;8.578;2023-05-19T10:49:59;5.03;;;3.47;;
65769;SDS011;52512;47.650;8.578;2023-05-19T10:52:25;7.30;;;3.20;;
65769;SDS011;52512;47.650;8.578;2023-05-19T10:54:53;9.13;;;3.43;;
65769;SDS011;52512;47.650;8.578;2023-05-19T10:57:19;6.20;;;4.20;;
65769;SDS011;52512;47.650;8.578;2023-05-19T10:59:54;5.97;;;3.27;;
65769;SDS011;52512;47.650;8.578;2023-05-19T11:02:37;3.63;;;2.90;;
65769;SDS011;52512;47.650;8.578;2023-05-19T11:05:11;8.53;;;2.90;;
65769;SDS011;52512;47.650;8.578;2023-05-19T11:07:54;8.73;;;3.00;;
65769;SDS011;52512;47.650;8.578;2023-05-19T11:10:26;4.30;;;3.70;;
65769;SDS011;52512;47.650;8.578;2023-05-19T11:12:51;4.10;;;2.70;;
65769;SDS011;52512;47.650;8.578;2023-05-19T11:15:20;6.87;;;2.83;;
65769;SDS011;52512;47.650;8.578;2023-05-19T11:17:50;5.40;;;3.47;;
65769;SDS011;52512;47.650;8.578;2023-05-19T11:20:23;8.40;;;3.17;;
65769;SDS011;52512;47.650;8.578;2023-05-19T11:23:03;6.20;;;3.20;;
65769;SDS011;52512;47.650;8.578;2023-05-19T11:25:43;9.83;;;3.27;;
65769;SDS011;52512;47.650;8.578;2023-05-19T11:28:18;3.50;;;3.20;;
65769;SDS011;52512;47.650;8.578;2023-05-19T11:30:46;7.53;;;4.17;;
65769;SDS011;52512;47.650;8.578;2023-05-19T11:33:15;5.73;;;3.33;;
65769;SDS011;52512;47.650;8.578;2023-05-19T11:35:47;7.53;;;4.47;;
65769;SDS011;52512;47.650;8.578;2023-05-19T11:38:18;3.00;;;2.70;;
65769;SDS011;52512;47.650;8.578;2023-05-19T11:40:45;8.83;;;3.43;;
65769;SDS011;52512;47.650;8.578;2023-05-19T11:43:12;6.93;;;3.50;;
65769;SDS011;52512;47.650;8.578;2023-05-19T11:45:37;4.93;;;3.00;;
65769;SDS011;52512;47.650;8.578;2023-05-19T11:48:03;2.73;;;2.50;;
65769;SDS011;52512;47.650;8.578;2023-05-19T11:50:30;9.00;;;3.87;;
65769;SDS011;52512;47.650;8.578;2023-05-19T11:52:58;4.27;;;2.80;;
65769;SDS011;52512;47.650;8.578;2023-05-19T11:55:24;11.07;;;4.47;;
65769;SDS011;52512;47.650;8.578;2023-05-19T11:58:00;7.33;;;3.00;;
65769;SDS011;52512;47.650;8.578;2023-05-19T12:00:26;7.53;;;3.17;;
65769;SDS011;52512;47.650;8.578;2023-05-19T12:02:54;6.23;;;3.47;;
65769;SDS011;52512;47.650;8.578;2023-05-19T12:05:24;9.13;;;3.27;;
65769;SDS011;52512;47.650;8.578;2023-05-19T12:07:52;10.90;;;4.07;;
65769;SDS011;52512;47.650;8.578;2023-05-19T12:12:54;6.30;;;3.27;;
65769;SDS011;52512;47.650;8.578;2023-05-19T12:15:21;4.57;;;2.93;;
65769;SDS011;52512;47.650;8.578;2023-05-19T12:17:58;9.60;;;3.17;;
65769;SDS011;52512;47.650;8.578;2023-05-19T12:20:25;5.20;;;3.50;;
65769;SDS011;52512;47.650;8.578;2023-05-19T12:22:53;5.37;;;3.50;;
65769;SDS011;52512;47.650;8.578;2023-05-19T12:25:19;7.83;;;3.77;;
65769;SDS011;52512;47.650;8.578;2023-05-19T12:27:45;8.03;;;3.57;;
65769;SDS011;52512;47.650;8.578;2023-05-19T12:30:13;4.30;;;3.10;;
65769;SDS011;52512;47.650;8.578;2023-05-19T12:32:41;3.10;;;2.80;;
65769;SDS011;52512;47.650;8.578;2023-05-19T12:35:07;8.20;;;3.60;;
65769;SDS011;52512;47.650;8.578;2023-05-19T12:37:34;6.53;;;2.90;;
65769;SDS011;52512;47.650;8.578;2023-05-19T12:40:01;4.80;;;3.37;;
65769;SDS011;52512;47.650;8.578;2023-05-19T12:42:30;8.23;;;4.13;;
65769;SDS011;52512;47.650;8.578;2023-05-19T12:44:57;7.77;;;3.20;;
65769;SDS011;52512;47.650;8.578;2023-05-19T12:47:33;7.60;;;3.33;;
65769;SDS011;52512;47.650;8.578;2023-05-19T12:50:03;18.47;;;3.63;;
65769;SDS011;52512;47.650;8.578;2023-05-19T12:52:33;5.93;;;3.13;;
65769;SDS011;52512;47.650;8.578;2023-05-19T12:55:06;5.23;;;3.17;;
65769;SDS011;52512;47.650;8.578;2023-05-19T12:57:33;3.63;;;2.40;;
65769;SDS011;52512;47.650;8.578;2023-05-19T13:00:00;10.47;;;3.00;;
65769;SDS011;52512;47.650;8.578;2023-05-19T13:02:26;9.53;;;3.83;;
65769;SDS011;52512;47.650;8.578;2023-05-19T13:04:52;4.70;;;3.07;;
65769;SDS011;52512;47.650;8.578;2023-05-19T13:07:18;2.67;;;2.50;;
65769;SDS011;52512;47.650;8.578;2023-05-19T13:09:44;4.97;;;2.77;;
65769;SDS011;52512;47.650;8.578;2023-05-19T13:12:10;5.10;;;2.90;;
65769;SDS011;52512;47.650;8.578;2023-05-19T13:14:36;10.00;;;3.13;;
65769;SDS011;52512;47.650;8.578;2023-05-19T13:17:02;4.73;;;2.70;;
65769;SDS011;52512;47.650;8.578;2023-05-19T13:19:28;7.13;;;3.40;;
65769;SDS011;52512;47.650;8.578;2023-05-19T13:21:53;6.13;;;3.20;;
65769;SDS011;52512;47.650;8.578;2023-05-19T13:24:19;4.80;;;3.10;;
65769;SDS011;52512;47.650;8.578;2023-05-19T13:26:44;15.00;;;3.83;;
65769;SDS011;52512;47.650;8.578;2023-05-19T13:29:12;9.00;;;3.60;;
65769;SDS011;52512;47.650;8.578;2023-05-19T13:31:40;6.33;;;2.97;;
65769;SDS011;52512;47.650;8.578;2023-05-19T13:34:06;7.17;;;3.30;;
65769;SDS011;52512;47.650;8.578;2023-05-19T13:36:31;4.20;;;3.03;;
65769;SDS011;52512;47.650;8.578;2023-05-19T13:38:58;3.30;;;3.00;;
65769;SDS011;52512;47.650;8.578;2023-05-19T13:41:25;9.00;;;3.57;;
65769;SDS011;52512;47.650;8.578;2023-05-19T13:43:51;5.83;;;3.83;;
65769;SDS011;52512;47.650;8.578;2023-05-19T13:46:17;9.67;;;3.97;;
65769;SDS011;52512;47.650;8.578;2023-05-19T13:48:43;6.07;;;2.90;;
65769;SDS011;52512;47.650;8.578;2023-05-19T13:51:08;7.37;;;3.07;;
65769;SDS011;52512;47.650;8.578;2023-05-19T13:53:34;4.57;;;2.77;;
65769;SDS011;52512;47.650;8.578;2023-05-19T13:56:00;6.03;;;2.93;;
65769;SDS011;52512;47.650;8.578;2023-05-19T13:58:27;13.40;;;3.60;;
65769;SDS011;52512;47.650;8.578;2023-05-19T14:00:53;5.67;;;2.57;;
65769;SDS011;52512;47.650;8.578;2023-05-19T14:03:20;7.90;;;3.90;;
65769;SDS011;52512;47.650;8.578;2023-05-19T14:05:47;5.13;;;2.90;;
65769;SDS011;52512;47.650;8.578;2023-05-19T14:08:13;5.53;;;3.00;;
65769;SDS011;52512;47.650;8.578;2023-05-19T14:10:40;5.50;;;2.80;;
65769;SDS011;52512;47.650;8.578;2023-05-19T14:13:07;4.20;;;3.60;;
65769;SDS011;52512;47.650;8.578;2023-05-19T14:15:34;5.53;;;2.60;;
65769;SDS011;52512;47.650;8.578;2023-05-19T14:18:01;5.80;;;3.37;;
65769;SDS011;52512;47.650;8.578;2023-05-19T14:20:27;6.03;;;3.17;;
65769;SDS011;52512;47.650;8.578;2023-05-19T14:22:53;3.27;;;2.97;;
65769;SDS011;52512;47.650;8.578;2023-05-19T14:25:19;3.37;;;2.90;;
65769;SDS011;52512;47.650;8.578;2023-05-19T14:27:45;5.60;;;3.47;;
65769;SDS011;52512;47.650;8.578;2023-05-19T14:30:11;7.80;;;3.53;;
65769;SDS011;52512;47.650;8.578;2023-05-19T14:32:36;9.73;;;4.07;;
65769;SDS011;52512;47.650;8.578;2023-05-19T14:35:02;8.33;;;3.57;;
65769;SDS011;52512;47.650;8.578;2023-05-19T14:37:28;9.97;;;4.23;;
65769;SDS011;52512;47.650;8.578;2023-05-19T14:39:56;8.20;;;5.13;;
65769;SDS011;52512;47.650;8.578;2023-05-19T14:42:22;9.93;;;4.13;;
65769;SDS011;52512;47.650;8.578;2023-05-19T14:44:48;10.57;;;4.50;;
65769;SDS011;52512;47.650;8.578;2023-05-19T14:47:14;10.20;;;4.73;;
65769;SDS011;52512;47.650;8.578;2023-05-19T14:49:39;13.37;;;4.33;;
65769;SDS011;52512;47.650;8.578;2023-05-19T14:52:05;8.20;;;4.60;;
65769;SDS011;52512;47.650;8.578;2023-05-19T14:54:31;12.70;;;4.80;;
65769;SDS011;52512;47.650;8.578;2023-05-19T14:56:57;6.50;;;3.93;;
65769;SDS011;52512;47.650;8.578;2023-05-19T14:59:23;16.83;;;5.43;;
65769;SDS011;52512;47.650;8.578;2023-05-19T15:01:49;10.80;;;4.60;;
65769;SDS011;52512;47.650;8.578;2023-05-19T15:04:15;9.70;;;4.53;;
65769;SDS011;52512;47.650;8.578;2023-05-19T15:06:40;5.63;;;4.23;;
65769;SDS011;52512;47.650;8.578;2023-05-19T15:09:06;16.10;;;4.10;;
65769;SDS011;52512;47.650;8.578;2023-05-19T15:11:32;11.40;;;4.27;;
65769;SDS011;52512;47.650;8.578;2023-05-19T15:13:57;13.37;;;5.20;;
65769;SDS011;52512;47.650;8.578;2023-05-19T15:16:23;12.53;;;4.77;;